Time;durP1;ratioP1;P1;durP2;ratioP2;P2;SDS_P1;SDS_P2;PMS_P1;PMS_P2;Temp;Humidity;BMP_temperature;BMP_pressure;BME280_temperature;BME280_humidity;BME280_pressure;Samples;Min_cycle;Max_cycle;Signal;HPM_P1;HPM_P2
2022/11/16 00:01:24;;;;;;;13.38;6.40;;;;;;;-2.33;78.63;98781.81;4919832;29;20054;-69
2022/11/16 00:03:51;;;;;;;8.63;5.25;;;;;;;-2.31;78.57;98788.44;4919910;29;20105;-68
2022/11/16 00:06:18;;;;;;;16.98;7.50;;;;;;;-2.28;79.10;98797.69;4919733;29;20040;-68
2022/11/16 00:09:21;;;;;;;16.60;6.88;;;;;;;-2.26;78.47;98787.94;4920052;29;20048;-68
2022/11/16 00:11:36;;;;;;;12.63;6.95;;;;;;;-2.21;78.58;98795.22;4922995;29;20044;-69
2022/11/16 00:14:03;;;;;;;13.60;6.63;;;;;;;-2.15;78.34;98787.53;4919987;29;20082;-68
2022/11/16 00:16:29;;;;;;;11.50;6.70;;;;;;;-2.13;78.30;98790.78;4919709;29;20147;-68
2022/11/16 00:19:01;;;;;;;11.65;6.78;;;;;;;-2.01;78.21;98783.41;4872762;29;20048;-67
2022/11/16 00:21:27;;;;;;;12.07;6.53;;;;;;;-2.01;77.58;98788.63;4903584;29;20106;-68
2022/11/16 00:23:53;;;;;;;10.75;6.43;;;;;;;-1.98;77.99;98798.66;4936901;29;20497;-68
2022/11/16 00:26:19;;;;;;;13.90;6.93;;;;;;;-1.94;77.42;98789.56;4919181;29;20044;-67
2022/11/16 00:28:45;;;;;;;13.38;8.02;;;;;;;-1.81;77.67;98783.78;4919303;29;20441;-70
2022/11/16 00:31:10;;;;;;;17.90;7.82;;;;;;;-1.79;77.10;98791.41;4919198;29;20050;-68
2022/11/16 00:33:37;;;;;;;16.55;7.82;;;;;;;-1.74;77.92;98792.50;4903637;29;20048;-68
2022/11/16 00:36:05;;;;;;;12.45;6.75;;;;;;;-1.73;77.21;98793.34;4936221;29;20044;-67
2022/11/16 00:38:31;;;;;;;14.60;6.80;;;;;;;-1.84;77.57;98782.34;4919412;29;20051;-68
2022/11/16 00:40:57;;;;;;;14.40;6.40;;;;;;;-1.76;77.07;98791.09;4936081;29;20048;-68
2022/11/16 00:43:23;;;;;;;11.07;5.28;;;;;;;-1.85;76.87;98798.94;4903572;29;20545;-68
2022/11/16 00:45:49;;;;;;;11.85;7.03;;;;;;;-1.87;76.98;98792.28;4887663;29;20183;-70
2022/11/16 00:48:14;;;;;;;9.98;5.95;;;;;;;-1.85;76.57;98791.13;4936490;29;20134;-68
2022/11/16 00:50:43;;;;;;;12.38;6.47;;;;;;;-1.86;76.74;98783.50;4934862;29;20047;-68
2022/11/16 00:53:11;;;;;;;11.15;6.07;;;;;;;-1.83;76.39;98789.16;4936399;29;20130;-67
2022/11/16 00:55:37;;;;;;;13.70;5.63;;;;;;;-1.96;76.21;98796.72;4918851;29;20051;-69
2022/11/16 00:58:03;;;;;;;13.25;6.07;;;;;;;-1.97;76.10;98792.50;4918943;29;20048;-68
2022/11/16 01:00:28;;;;;;;13.15;6.90;;;;;;;-1.97;76.46;98795.09;4902900;29;20149;-67
2022/11/16 01:02:54;;;;;;;9.82;6.07;;;;;;;-1.98;75.88;98787.47;4936104;29;20039;-68
2022/11/16 01:05:21;;;;;;;12.82;5.80;;;;;;;-1.98;75.53;98784.88;4918708;29;20039;-68
2022/11/16 01:07:47;;;;;;;15.70;6.00;;;;;;;-2.00;75.69;98785.06;4909547;29;20047;-68
2022/11/16 01:10:16;;;;;;;10.45;5.40;;;;;;;-2.10;75.53;98787.03;4921912;29;20071;-68
2022/11/16 01:12:43;;;;;;;12.73;6.10;;;;;;;-2.10;75.69;98795.63;4937358;29;20519;-68
2022/11/16 01:15:09;;;;;;;10.73;5.70;;;;;;;-2.14;75.54;98788.38;4954926;29;20047;-67
2022/11/16 01:17:36;;;;;;;10.07;5.88;;;;;;;-2.16;75.39;98790.31;4921673;29;20394;-67
2022/11/16 01:20:04;;;;;;;14.40;5.88;;;;;;;-2.22;75.28;98791.81;4937450;29;20055;-69
2022/11/16 01:22:31;;;;;;;12.25;6.20;;;;;;;-2.16;75.42;98787.72;4952815;28;20122;-73
2022/11/16 01:24:57;;;;;;;14.85;6.50;;;;;;;-2.29;75.30;98791.69;4937279;29;20146;-67
2022/11/16 01:27:23;;;;;;;13.85;6.07;;;;;;;-2.38;75.20;98786.69;4921150;29;20146;-68
2022/11/16 01:29:48;;;;;;;13.38;5.70;;;;;;;-2.40;75.54;98789.47;4937135;29;20051;-66
2022/11/16 01:32:15;;;;;;;12.43;6.70;;;;;;;-2.38;75.11;98791.88;4921475;29;20480;-69
2022/11/16 01:34:41;;;;;;;17.67;6.75;;;;;;;-2.42;75.07;98788.00;4952998;29;20047;-68
2022/11/16 01:37:19;;;;;;;13.02;6.47;;;;;;;-2.51;75.35;98801.00;4937094;29;20098;-68
2022/11/16 01:39:45;;;;;;;19.58;6.70;;;;;;;-2.58;75.12;98800.06;4921140;29;20146;-67
2022/11/16 01:42:28;;;;;;;19.75;7.82;;;;;;;-2.60;75.86;98799.41;4936841;29;20046;-68
2022/11/16 01:45:18;;;;;;;14.10;7.47;;;;;;;-2.54;75.23;98795.34;4905937;29;20129;-68
2022/11/16 01:47:44;;;;;;;17.35;6.65;;;;;;;-2.57;75.26;98793.91;4937075;29;20500;-69
2022/11/16 01:50:14;;;;;;;16.75;7.38;;;;;;;-2.47;75.23;98803.28;4936841;29;20366;-68
2022/11/16 01:52:47;;;;;;;14.60;7.53;;;;;;;-2.48;74.60;98805.06;4921458;29;20047;-68
2022/11/16 01:55:13;;;;;;;17.27;6.80;;;;;;;-2.47;74.76;98813.66;4921434;29;20109;-67
2022/11/16 01:58:08;;;;;;;17.05;7.60;;;;;;;-2.46;74.82;98810.09;4936964;29;20079;-68
2022/11/16 02:00:36;;;;;;;13.40;7.40;;;;;;;-2.46;74.56;98805.72;4952595;29;20410;-69
2022/11/16 02:03:22;;;;;;;16.70;7.88;;;;;;;-2.43;74.59;98813.16;4954156;29;20101;-68
2022/11/16 02:05:57;;;;;;;15.32;5.55;;;;;;;-2.40;74.17;98809.44;4920938;29;20085;-69
2022/11/16 02:12:02;;;;;;;14.85;6.22;;;;;;;-2.42;73.50;98806.19;4936419;29;20046;-69
2022/11/16 02:14:43;;;;;;;14.00;6.40;;;;;;;-2.34;73.91;98812.16;4936400;29;20137;-68
2022/11/16 02:17:35;;;;;;;12.27;5.88;;;;;;;-2.37;73.17;98811.69;4952421;29;20074;-69
2022/11/16 02:20:38;;;;;;;10.40;4.97;;;;;;;-2.44;73.50;98821.09;4890896;29;20063;-68
2022/11/16 02:23:26;;;;;;;10.90;4.85;;;;;;;-2.63;73.28;98817.91;4952514;29;20701;-68
2022/11/16 02:26:18;;;;;;;13.30;5.70;;;;;;;-2.67;73.66;98821.84;4920420;29;20055;-68
2022/11/16 02:28:55;;;;;;;13.10;5.28;;;;;;;-2.79;72.90;98826.56;4942753;29;20055;-67
2022/11/16 02:31:28;;;;;;;11.32;4.70;;;;;;;-2.78;73.31;98827.38;4936073;29;20122;-69
2022/11/16 02:33:56;;;;;;;7.05;4.03;;;;;;;-2.79;73.64;98826.56;4904475;29;20421;-67
2022/11/16 02:36:23;;;;;;;9.70;4.68;;;;;;;-2.75;73.67;98827.03;4935778;29;20090;-68
2022/11/16 02:38:55;;;;;;;12.30;4.95;;;;;;;-2.68;73.02;98821.97;4920589;29;20468;-68
2022/11/16 02:41:22;;;;;;;10.07;5.10;;;;;;;-2.73;73.70;98830.28;4936191;29;20122;-68
2022/11/16 02:43:52;;;;;;;10.60;4.97;;;;;;;-2.73;73.36;98827.69;4920289;29;20055;-68
2022/11/16 02:46:21;;;;;;;8.82;4.18;;;;;;;-2.94;73.12;98828.22;4936064;29;20493;-69
2022/11/16 02:48:49;;;;;;;9.90;4.60;;;;;;;-2.94;73.25;98837.75;4920045;29;20047;-69
2022/11/16 02:51:17;;;;;;;8.85;4.70;;;;;;;-3.00;73.91;98839.22;4952955;29;20294;-68
2022/11/16 02:54:07;;;;;;;7.32;4.65;;;;;;;-3.04;73.36;98841.34;4936004;29;20047;-69
2022/11/16 02:56:55;;;;;;;7.32;4.32;;;;;;;-3.13;73.26;98851.88;4895151;29;20043;-69
2022/11/16 02:59:30;;;;;;;8.70;4.40;;;;;;;-3.13;73.77;98842.31;4904717;29;20444;-67
2022/11/16 03:02:01;;;;;;;12.75;4.63;;;;;;;-3.21;73.82;98847.50;4920115;29;20039;-69
2022/11/16 03:04:36;;;;;;;7.88;4.68;;;;;;;-3.13;74.71;98838.91;4935878;29;20043;-67
2022/11/16 03:07:04;;;;;;;12.55;5.45;;;;;;;-3.05;74.21;98841.50;4920448;29;20094;-68
2022/11/16 03:09:33;;;;;;;13.73;4.97;;;;;;;-3.04;74.25;98843.94;4935793;29;20047;-68
2022/11/16 03:12:00;;;;;;;10.23;5.35;;;;;;;-2.98;73.95;98840.69;4935977;29;20074;-67
2022/11/16 03:14:34;;;;;;;11.52;5.18;;;;;;;-2.96;73.73;98848.31;4920478;29;20536;-68
2022/11/16 03:17:01;;;;;;;9.55;5.70;;;;;;;-2.98;73.97;98845.88;4935864;29;20509;-69
2022/11/16 03:19:51;;;;;;;6.95;4.60;;;;;;;-2.91;74.61;98851.22;4920671;29;20051;-68
2022/11/16 03:22:24;;;;;;;9.57;5.22;;;;;;;-2.92;73.15;98849.59;4919784;29;20390;-68
2022/11/16 03:24:50;;;;;;;8.05;4.80;;;;;;;-2.89;73.60;98841.47;4936025;29;20142;-67
2022/11/16 03:27:15;;;;;;;7.72;5.07;;;;;;;-2.91;73.20;98843.44;4935464;29;20146;-68
2022/11/16 03:29:46;;;;;;;7.25;4.45;;;;;;;-2.89;73.36;98856.22;4952054;29;20061;-69
2022/11/16 03:32:18;;;;;;;8.93;4.88;;;;;;;-2.98;73.16;98842.47;4935776;29;20058;-69
2022/11/16 03:34:53;;;;;;;9.38;4.85;;;;;;;-2.99;72.58;98859.00;4935827;29;20126;-68
2022/11/16 03:37:20;;;;;;;7.95;4.70;;;;;;;-3.09;72.45;98861.78;4904771;29;20047;-68
2022/11/16 03:39:46;;;;;;;8.35;4.43;;;;;;;-3.21;72.90;98855.28;4935579;29;20055;-68
2022/11/16 03:42:13;;;;;;;11.27;4.07;;;;;;;-3.36;72.86;98855.09;4919768;29;20047;-67
2022/11/16 03:44:42;;;;;;;5.55;4.10;;;;;;;-3.48;72.99;98866.75;4936195;29;20078;-68
2022/11/16 03:47:08;;;;;;;10.00;4.50;;;;;;;-3.60;73.69;98870.63;4922852;29;20444;-68
2022/11/16 03:49:34;;;;;;;9.07;4.47;;;;;;;-3.64;74.54;98867.56;4956636;29;20047;-67
2022/11/16 03:52:00;;;;;;;9.30;4.97;;;;;;;-3.69;74.42;98864.63;4942255;29;20053;-68
2022/11/16 03:54:27;;;;;;;5.82;3.90;;;;;;;-3.76;74.64;98869.63;4925890;29;20051;-68
2022/11/16 03:56:53;;;;;;;7.68;4.40;;;;;;;-3.77;74.77;98872.38;4958819;29;20143;-69
2022/11/16 03:59:19;;;;;;;9.60;4.57;;;;;;;-3.83;75.26;98875.59;4918781;29;20514;-69
2022/11/16 04:01:45;;;;;;;16.25;7.55;;;;;;;-3.84;75.32;98874.78;4887965;29;20055;-68
2022/11/16 04:24:10;;;;;;;10.00;4.57;;;;;;;-3.94;76.04;98874.91;4911132;29;20055;-67
2022/11/16 04:26:13;;;;;;;11.30;5.30;;;;;;;-4.08;75.89;98887.66;4938450;29;20401;-68
2022/11/16 04:28:40;;;;;;;13.35;5.22;;;;;;;-4.08;75.57;98878.09;4922338;29;20059;-69
2022/11/16 04:39:30;;;;;;;16.38;5.60;;;;;;;-4.00;75.54;98885.06;4938172;29;20051;-68
2022/11/16 04:42:14;;;;;;;9.40;4.90;;;;;;;-4.07;75.16;98882.31;4938063;29;20054;-68
2022/11/16 04:47:31;;;;;;;10.73;5.30;;;;;;;-4.10;75.40;98892.97;4900128;29;20095;-69
2022/11/16 04:49:57;;;;;;;10.75;5.10;;;;;;;-4.09;75.63;98891.19;4916790;29;20462;-68
2022/11/16 04:52:23;;;;;;;10.30;5.18;;;;;;;-4.06;75.38;98896.06;4937849;29;20043;-68
2022/11/16 04:54:51;;;;;;;9.93;5.22;;;;;;;-4.03;75.06;98886.22;4922334;29;20066;-68
2022/11/16 04:57:17;;;;;;;9.32;5.28;;;;;;;-4.03;74.57;98894.00;4936941;29;20496;-69
2022/11/16 04:59:44;;;;;;;8.80;5.72;;;;;;;-4.07;75.01;98891.84;4921786;29;20043;-67
2022/11/16 05:02:10;;;;;;;10.55;4.57;;;;;;;-4.11;74.74;98899.94;4923490;29;20050;-67
2022/11/16 05:04:47;;;;;;;12.75;5.65;;;;;;;-4.05;75.35;98905.47;4938122;29;20047;-67
2022/11/16 05:07:13;;;;;;;10.90;5.32;;;;;;;-4.04;75.23;98899.31;4953535;29;20058;-68
2022/11/16 05:09:43;;;;;;;11.15;5.40;;;;;;;-4.00;75.37;98908.38;4921980;29;20054;-67
2022/11/16 05:12:15;;;;;;;11.60;5.53;;;;;;;-4.03;74.17;98903.50;4922115;29;20573;-67
2022/11/16 05:14:43;;;;;;;7.72;4.72;;;;;;;-4.05;74.82;98900.28;4937811;29;20291;-67
2022/11/16 05:17:10;;;;;;;14.18;6.03;;;;;;;-4.11;75.27;98902.50;4937299;29;20039;-69
2022/11/16 05:22:23;;;;;;;15.30;5.53;;;;;;;-4.12;75.30;98897.47;4937256;29;20058;-70
2022/11/16 05:24:50;;;;;;;11.13;6.13;;;;;;;-4.12;75.20;98908.66;4937691;29;20058;-68
2022/11/16 05:27:18;;;;;;;18.20;8.43;;;;;;;-4.19;75.39;98905.06;4937179;29;20190;-72
2022/11/16 05:29:45;;;;;;;12.52;7.00;;;;;;;-4.24;75.57;98920.22;4921754;29;20050;-70
2022/11/16 05:32:14;;;;;;;13.25;6.28;;;;;;;-4.28;75.37;98925.88;4906132;29;20500;-72
2022/11/16 05:34:41;;;;;;;11.70;6.00;;;;;;;-4.35;75.68;98920.53;4937375;29;20062;-71
2022/11/16 05:37:08;;;;;;;7.10;4.57;;;;;;;-4.43;75.56;98918.69;4937132;29;20575;-72
2022/11/16 05:39:34;;;;;;;11.68;6.03;;;;;;;-4.46;75.68;98925.94;4921318;29;20050;-70
2022/11/16 05:42:00;;;;;;;10.65;5.07;;;;;;;-4.49;75.71;98921.88;4936677;29;20051;-71
2022/11/16 05:44:26;;;;;;;8.85;5.50;;;;;;;-4.49;75.93;98919.31;4921080;29;20043;-71
2022/11/16 05:46:52;;;;;;;10.77;5.32;;;;;;;-4.54;75.67;98926.69;4936976;29;20394;-69
2022/11/16 05:49:18;;;;;;;12.60;5.75;;;;;;;-4.55;75.94;98929.44;4953153;29;20413;-71
2022/11/16 05:51:46;;;;;;;8.50;4.28;;;;;;;-4.68;76.28;98920.28;4952790;29;20047;-72
2022/11/16 05:54:17;;;;;;;8.13;4.85;;;;;;;-4.55;75.83;98937.22;4935407;29;20039;-71
2022/11/16 05:56:44;;;;;;;13.00;5.03;;;;;;;-4.58;76.02;98941.72;4904784;29;20114;-72
2022/11/16 05:59:19;;;;;;;11.05;5.60;;;;;;;-4.56;76.31;98933.78;4936036;29;20493;-72
2022/11/16 06:01:46;;;;;;;7.53;4.95;;;;;;;-4.78;76.64;98917.00;4936091;29;20051;-73
2022/11/16 06:04:13;;;;;;;8.85;5.18;;;;;;;-4.56;75.97;98941.53;4952520;29;20059;-73
2022/11/16 06:06:39;;;;;;;11.95;6.32;;;;;;;-4.58;76.85;98949.47;4920497;29;20039;-72
2022/11/16 06:09:05;;;;;;;10.90;5.82;;;;;;;-4.59;76.96;98941.84;4936337;29;20058;-73
2022/11/16 06:11:33;;;;;;;10.65;5.50;;;;;;;-4.63;76.70;98943.13;4951377;29;20051;-71
2022/11/16 06:13:58;;;;;;;11.23;5.30;;;;;;;-4.53;76.35;98953.38;4919971;29;20047;-70
2022/11/16 06:16:25;;;;;;;10.73;5.40;;;;;;;-4.57;76.37;98950.28;4952885;29;20051;-72
2022/11/16 06:18:51;;;;;;;8.48;5.40;;;;;;;-4.52;77.04;98945.47;4904201;29;20054;-71
2022/11/16 06:21:18;;;;;;;9.63;5.65;;;;;;;-4.49;76.54;98941.78;4935184;29;20051;-70
2022/11/16 06:23:45;;;;;;;9.38;5.53;;;;;;;-4.48;76.77;98941.59;4904827;29;20039;-71
2022/11/16 06:26:11;;;;;;;8.65;5.40;;;;;;;-4.44;76.48;98949.88;4919979;29;20130;-74
2022/11/16 06:28:38;;;;;;;9.45;4.75;;;;;;;-4.39;76.17;98945.88;4919738;29;20113;-69
2022/11/16 06:31:09;;;;;;;8.80;5.75;;;;;;;-4.43;76.01;98944.56;4935968;29;20317;-69
2022/11/16 06:33:42;;;;;;;11.48;6.10;;;;;;;-4.41;76.59;98946.97;4899982;29;20138;-68
2022/11/16 06:36:15;;;;;;;16.23;6.35;;;;;;;-4.35;76.17;98948.97;4935117;29;20043;-69
2022/11/16 06:38:42;;;;;;;7.85;5.25;;;;;;;-4.28;75.76;98944.81;4919158;29;20054;-73
2022/11/16 06:41:09;;;;;;;8.05;4.70;;;;;;;-4.30;75.31;98948.50;4918509;29;20050;-69
2022/11/16 06:43:41;;;;;;;10.30;5.28;;;;;;;-4.27;75.71;98945.63;4935425;29;20046;-66
2022/11/16 06:46:07;;;;;;;7.38;4.20;;;;;;;-4.28;75.17;98941.41;4951226;29;20051;-69
2022/11/16 06:48:33;;;;;;;11.48;5.78;;;;;;;-4.26;74.87;98942.09;4935031;29;20039;-67
2022/11/16 06:51:00;;;;;;;9.90;5.82;;;;;;;-4.23;75.36;98947.75;4935523;29;20147;-67
2022/11/16 06:53:27;;;;;;;7.60;4.53;;;;;;;-4.21;74.61;98940.63;4935160;29;20047;-69
2022/11/16 06:55:54;;;;;;;15.35;5.38;;;;;;;-4.21;74.32;98947.59;4936782;29;20186;-66
2022/11/16 06:58:19;;;;;;;10.35;5.20;;;;;;;-4.14;74.49;98943.44;4900497;29;20505;-72
2022/11/16 07:00:46;;;;;;;11.05;5.30;;;;;;;-4.12;74.04;98944.06;4916072;29;20058;-71
2022/11/16 07:03:13;;;;;;;9.25;5.28;;;;;;;-4.07;74.27;98948.81;4899340;29;20043;-72
2022/11/16 07:05:40;;;;;;;12.50;5.75;;;;;;;-4.01;73.64;98932.66;4915974;29;20043;-72
2022/11/16 07:08:10;;;;;;;11.35;4.90;;;;;;;-3.98;73.29;98934.94;4932156;29;20458;-71
2022/11/16 07:10:37;;;;;;;8.30;4.95;;;;;;;-3.89;72.92;98939.97;4900373;29;20409;-71
2022/11/16 07:13:04;;;;;;;8.77;5.10;;;;;;;-3.92;73.04;98919.56;4915663;29;20047;-70
2022/11/16 07:15:32;;;;;;;9.57;5.60;;;;;;;-3.84;73.06;98931.75;4931952;29;20123;-70
2022/11/16 07:18:05;;;;;;;10.15;5.40;;;;;;;-3.82;73.21;98934.16;4915522;29;20522;-70
2022/11/16 07:20:33;;;;;;;14.05;6.20;;;;;;;-3.76;73.62;98938.75;4932614;29;20047;-70
2022/11/16 07:23:00;;;;;;;10.35;5.47;;;;;;;-3.68;72.68;98939.59;4919217;29;20048;-69
2022/11/16 07:25:28;;;;;;;9.10;5.35;;;;;;;-3.65;72.45;98946.22;4916131;29;20468;-68
2022/11/16 07:27:54;;;;;;;10.23;5.80;;;;;;;-3.56;72.16;98942.72;4903101;29;20508;-69
2022/11/16 07:30:21;;;;;;;14.57;6.22;;;;;;;-3.57;71.65;98935.09;4918354;29;20051;-71
2022/11/16 07:33:09;;;;;;;10.88;5.63;;;;;;;-3.44;71.41;98940.63;4928677;29;20040;-70
2022/11/16 07:36:12;;;;;;;11.98;6.43;;;;;;;-3.36;71.47;98947.59;4931615;29;20134;-70
2022/11/16 07:38:38;;;;;;;13.63;5.30;;;;;;;-3.31;71.28;98953.94;4902842;29;20082;-70
2022/11/16 07:41:09;;;;;;;9.98;5.88;;;;;;;-3.33;70.60;98949.88;4934124;29;20103;-70
2022/11/16 07:43:39;;;;;;;9.55;5.35;;;;;;;-3.28;71.12;98952.81;4919457;29;20047;-69
2022/11/16 07:46:15;;;;;;;10.80;4.97;;;;;;;-3.23;70.69;98948.78;4903315;29;20107;-71
2022/11/16 07:48:41;;;;;;;11.27;5.13;;;;;;;-3.21;70.71;98954.63;4902242;29;20054;-69
2022/11/16 07:51:17;;;;;;;10.48;5.68;;;;;;;-3.18;70.12;98953.47;4919856;29;20071;-70
2022/11/16 07:53:54;;;;;;;15.50;6.90;;;;;;;-3.12;69.89;98957.19;4888035;29;20051;-69
2022/11/16 07:56:21;;;;;;;9.07;5.32;;;;;;;-3.12;70.07;98954.59;4917341;29;20051;-68
2022/11/16 07:58:48;;;;;;;9.20;5.30;;;;;;;-3.08;69.40;98956.72;4916560;29;20062;-68
2022/11/16 08:01:15;;;;;;;15.55;6.95;;;;;;;-3.13;69.14;98942.63;4917758;29;20146;-70
2022/11/16 08:03:44;;;;;;;10.68;5.50;;;;;;;-3.04;68.87;98952.03;4917529;29;20075;-67
2022/11/16 08:06:10;;;;;;;14.90;5.50;;;;;;;-2.99;69.02;98953.16;4917299;29;20263;-68
2022/11/16 08:08:36;;;;;;;10.82;5.15;;;;;;;-2.92;68.37;98957.72;4918446;29;20050;-68
2022/11/16 08:11:04;;;;;;;9.57;5.47;;;;;;;-2.86;68.25;98949.28;4918174;29;20575;-68
2022/11/16 08:13:33;;;;;;;33.65;9.23;;;;;;;-2.81;68.29;98953.00;4919634;29;20055;-67
2022/11/16 08:16:06;;;;;;;15.32;7.25;;;;;;;-2.80;68.31;98952.03;4902874;29;20477;-64
2022/11/16 08:18:32;;;;;;;13.70;6.68;;;;;;;-2.79;67.94;98958.84;4918809;29;20046;-72
2022/11/16 08:21:00;;;;;;;11.95;6.47;;;;;;;-2.78;67.99;98951.88;4887135;29;20103;-70
2022/11/16 08:23:28;;;;;;;11.00;5.93;;;;;;;-2.73;68.11;98957.41;4903388;29;20047;-70
2022/11/16 08:26:06;;;;;;;14.20;6.65;;;;;;;-2.70;67.59;98953.69;4918121;29;20056;-70
2022/11/16 08:28:32;;;;;;;10.07;6.00;;;;;;;-2.61;67.14;98961.28;4856543;29;20063;-72
2022/11/16 08:30:58;;;;;;;10.07;5.43;;;;;;;-2.54;67.40;98959.66;4896150;29;20056;-70
2022/11/16 08:33:27;;;;;;;11.40;5.85;;;;;;;-2.56;67.02;98958.19;4895081;29;20048;-71
2022/11/16 08:35:53;;;;;;;12.85;6.65;;;;;;;-2.49;67.68;98968.75;4878765;29;20049;-71
2022/11/16 08:38:20;;;;;;;13.75;6.32;;;;;;;-2.44;66.72;98964.69;4910528;29;20045;-70
2022/11/16 08:40:46;;;;;;;14.70;6.07;;;;;;;-2.33;66.88;98976.50;4895720;29;20053;-69
2022/11/16 08:43:12;;;;;;;11.27;5.72;;;;;;;-2.37;66.41;98970.81;4895306;29;20044;-70
2022/11/16 08:45:38;;;;;;;9.70;5.85;;;;;;;-2.32;66.41;98973.75;4847573;29;20044;-70
2022/11/16 08:48:05;;;;;;;10.98;5.72;;;;;;;-2.33;65.83;98966.91;4895821;29;20044;-69
2022/11/16 08:50:33;;;;;;;10.65;5.65;;;;;;;-2.20;65.37;98978.59;4895995;29;20048;-69
2022/11/16 08:53:01;;;;;;;10.98;5.80;;;;;;;-2.19;65.70;98978.44;4909577;29;20048;-71
2022/11/16 08:55:26;;;;;;;10.05;6.13;;;;;;;-2.17;64.94;98976.47;4893999;29;20071;-69
2022/11/16 08:57:52;;;;;;;13.38;6.32;;;;;;;-2.21;65.24;98982.16;4896411;29;20131;-69
2022/11/16 09:00:18;;;;;;;11.98;5.80;;;;;;;-2.18;64.38;98977.44;4895482;29;20052;-71
2022/11/16 09:02:44;;;;;;;11.20;5.35;;;;;;;-2.13;64.58;98980.34;4891849;29;20055;-71
2022/11/16 09:05:10;;;;;;;15.30;5.60;;;;;;;-2.11;64.36;98978.41;4893875;29;20545;-69
2022/11/16 09:07:42;;;;;;;14.00;6.22;;;;;;;-2.13;64.16;98982.94;4879473;29;20041;-69
2022/11/16 09:10:09;;;;;;;10.13;5.43;;;;;;;-2.09;64.20;98970.44;4861624;29;20057;-67
2022/11/16 09:12:35;;;;;;;20.65;6.18;;;;;;;-2.03;64.02;98974.97;4877485;29;20076;-69
2022/11/16 09:15:01;;;;;;;9.98;5.28;;;;;;;-2.05;63.68;98969.16;4878754;29;20052;-64
2022/11/16 09:17:29;;;;;;;14.55;6.32;;;;;;;-2.03;63.83;98968.97;4897054;29;20072;-71
2022/11/16 09:19:55;;;;;;;10.48;6.10;;;;;;;-2.03;63.42;98972.38;4893608;29;20092;-69
2022/11/16 09:22:21;;;;;;;13.27;5.88;;;;;;;-1.99;63.09;98972.88;4894387;29;20056;-70
2022/11/16 09:24:46;;;;;;;14.27;5.90;;;;;;;-1.97;63.69;98966.53;4890049;29;20044;-68
2022/11/16 09:27:13;;;;;;;9.77;5.43;;;;;;;-1.90;62.52;98964.88;4894226;29;20119;-64
2022/11/16 09:29:39;;;;;;;9.50;4.97;;;;;;;-1.91;61.78;98973.66;4914570;29;20075;-70
2022/11/16 09:32:05;;;;;;;10.55;5.45;;;;;;;-1.86;61.52;98967.94;4913582;29;20127;-70
2022/11/16 09:34:35;;;;;;;8.32;4.78;;;;;;;-1.91;61.31;98962.44;4898056;29;20954;-67
2022/11/16 09:37:01;;;;;;;10.82;5.85;;;;;;;-1.86;62.49;98970.53;4932468;29;20055;-66
2022/11/16 09:39:30;;;;;;;10.20;5.20;;;;;;;-1.79;61.01;98966.31;4914927;29;20059;-65
2022/11/16 09:42:19;;;;;;;10.82;5.57;;;;;;;-1.76;61.09;98972.97;4914302;29;20043;-63
2022/11/16 09:44:57;;;;;;;9.32;4.05;;;;;;;-1.82;59.85;98966.66;4896914;29;20417;-64
2022/11/16 09:47:30;;;;;;;7.68;4.80;;;;;;;-1.81;60.07;98960.47;4933841;29;20146;-64
2022/11/16 09:49:59;;;;;;;7.88;4.57;;;;;;;-1.83;60.18;98954.63;4933023;29;20074;-64
2022/11/16 09:52:32;;;;;;;11.95;5.32;;;;;;;-1.80;60.34;98951.69;4916584;29;20047;-63
2022/11/16 09:55:01;;;;;;;9.00;4.55;;;;;;;-1.81;60.12;98952.66;4900839;29;20055;-63
2022/11/16 09:57:33;;;;;;;10.00;4.57;;;;;;;-1.78;59.90;98952.34;4915540;29;20497;-68
2022/11/16 10:00:10;;;;;;;6.10;3.90;;;;;;;-1.78;59.90;98949.72;4915684;29;20102;-63
2022/11/16 10:02:58;;;;;;;10.48;5.50;;;;;;;-1.74;59.56;98953.59;4916416;29;20578;-65
2022/11/16 10:05:31;;;;;;;10.07;4.57;;;;;;;-1.67;59.65;98951.97;4900867;29;20501;-63
2022/11/16 10:08:22;;;;;;;10.32;4.15;;;;;;;-1.63;59.16;98953.25;4902029;29;20047;-64
2022/11/16 10:11:03;;;;;;;8.32;4.70;;;;;;;-1.53;58.56;98958.25;4920701;29;20103;-64
2022/11/16 10:13:53;;;;;;;9.02;3.97;;;;;;;-1.52;58.83;98959.06;4916478;29;20051;-64
2022/11/16 10:16:48;;;;;;;12.20;5.18;;;;;;;-1.49;58.83;98959.50;4933921;29;20047;-64
2022/11/16 10:19:29;;;;;;;9.18;4.38;;;;;;;-1.47;58.88;98954.13;4895878;29;20462;-63
2022/11/16 10:22:03;;;;;;;9.35;4.75;;;;;;;-1.44;58.85;98959.00;4900966;29;20048;-64
2022/11/16 10:24:49;;;;;;;9.45;5.15;;;;;;;-1.44;58.12;98966.78;4900462;29;20067;-65
2022/11/16 10:27:29;;;;;;;9.80;5.55;;;;;;;-1.43;58.71;98960.63;4912773;29;20055;-64
2022/11/16 10:30:06;;;;;;;9.23;3.63;;;;;;;-1.44;58.11;98957.22;4913558;29;20070;-63
2022/11/16 10:32:35;;;;;;;7.10;3.90;;;;;;;-1.36;57.59;98958.94;4914574;29;20107;-62
2022/11/16 10:35:42;;;;;;;6.22;4.00;;;;;;;-1.27;57.62;98967.53;4896945;29;20123;-63
2022/11/16 10:38:13;;;;;;;5.20;3.55;;;;;;;-1.22;56.86;98968.63;4894138;29;20107;-62
2022/11/16 10:40:41;;;;;;;5.82;3.67;;;;;;;-1.12;56.70;98973.59;4913589;29;20135;-63
2022/11/16 10:43:13;;;;;;;7.57;3.57;;;;;;;-1.15;56.47;98972.19;4880195;29;20135;-63
2022/11/16 10:45:46;;;;;;;7.32;4.03;;;;;;;-1.02;56.46;98973.41;4913789;29;20304;-64
2022/11/16 10:48:21;;;;;;;9.93;4.47;;;;;;;-0.93;56.29;98978.38;4914318;29;20391;-63
2022/11/16 10:50:48;;;;;;;6.00;3.88;;;;;;;-0.84;55.83;98976.50;4897170;29;20048;-64
2022/11/16 10:53:15;;;;;;;7.63;3.92;;;;;;;-0.73;55.95;98983.91;4896070;29;20052;-63
2022/11/16 10:55:41;;;;;;;6.90;4.10;;;;;;;-0.68;55.99;98980.78;4849355;29;20517;-64
2022/11/16 10:58:07;;;;;;;8.27;4.00;;;;;;;-0.69;56.31;98981.78;4913396;29;20410;-63
2022/11/16 11:00:39;;;;;;;9.43;4.20;;;;;;;-0.79;56.84;98974.22;4865548;29;20055;-63
2022/11/16 11:03:05;;;;;;;5.95;3.53;;;;;;;-0.87;57.29;98970.84;4896054;29;20040;-64
2022/11/16 11:05:34;;;;;;;7.32;3.63;;;;;;;-0.92;57.28;98969.56;4913709;29;20099;-63
2022/11/16 11:08:07;;;;;;;8.55;3.35;;;;;;;-0.99;56.95;98970.44;4865857;29;20043;-63
2022/11/16 11:10:36;;;;;;;7.47;3.55;;;;;;;-1.13;57.63;98968.59;4881625;29;20063;-66
2022/11/16 11:13:05;;;;;;;7.93;3.83;;;;;;;-1.13;57.25;98971.19;4865805;29;20040;-65
2022/11/16 11:15:31;;;;;;;7.07;3.92;;;;;;;-1.14;56.86;98975.59;4913553;29;20139;-66
2022/11/16 11:18:25;;;;;;;5.07;3.38;;;;;;;-1.13;56.84;98973.78;4896309;29;20138;-67
2022/11/16 11:21:16;;;;;;;6.15;3.28;;;;;;;-1.15;57.05;98977.38;4866208;29;20051;-67
2022/11/16 11:23:51;;;;;;;6.47;3.20;;;;;;;-1.01;56.41;98977.59;4912819;29;20564;-65
2022/11/16 11:26:37;;;;;;;5.70;3.20;;;;;;;-0.98;56.07;98972.06;4895545;29;20473;-66
2022/11/16 11:29:29;;;;;;;5.53;3.15;;;;;;;-0.96;57.04;98970.09;4913723;29;20068;-67
2022/11/16 11:32:24;;;;;;;7.15;3.80;;;;;;;-0.99;56.59;98966.03;4912779;29;20082;-66
2022/11/16 11:34:54;;;;;;;4.63;3.28;;;;;;;-1.02;56.54;98968.19;4891019;29;20048;-65
2022/11/16 11:37:30;;;;;;;7.70;3.53;;;;;;;-0.98;56.54;98961.66;4896551;29;20112;-67
2022/11/16 11:40:06;;;;;;;7.55;4.00;;;;;;;-1.03;56.82;98959.59;4895693;29;20679;-66
2022/11/16 11:42:32;;;;;;;7.00;3.53;;;;;;;-1.04;57.41;98968.34;4913164;29;20044;-67
2022/11/16 11:45:02;;;;;;;10.38;4.15;;;;;;;-1.09;57.51;98957.66;4895367;29;20040;-65
2022/11/16 11:47:42;;;;;;;5.45;3.60;;;;;;;-1.18;57.52;98959.53;4880242;29;20466;-67
2022/11/16 11:50:15;;;;;;;8.90;4.53;;;;;;;-1.25;58.20;98957.75;4911596;29;20469;-66
2022/11/16 11:53:06;;;;;;;7.75;3.38;;;;;;;-1.23;57.71;98954.00;4899428;29;20107;-66
2022/11/16 11:55:32;;;;;;;10.05;4.35;;;;;;;-1.33;58.55;98948.22;4913762;29;20537;-67
2022/11/16 11:58:00;;;;;;;7.20;4.20;;;;;;;-1.35;59.22;98945.00;4933403;29;20043;-67
2022/11/16 12:00:30;;;;;;;8.55;4.22;;;;;;;-1.37;59.13;98952.94;4899750;29;20111;-67
2022/11/16 12:03:04;;;;;;;12.07;4.05;;;;;;;-1.39;58.91;98952.31;4899240;29;20056;-67
2022/11/16 12:05:52;;;;;;;10.93;3.55;;;;;;;-1.39;58.43;98954.91;4898457;29;20048;-66
2022/11/16 12:08:31;;;;;;;6.28;4.15;;;;;;;-1.44;59.04;98946.00;4935027;29;20095;-64
2022/11/16 12:11:15;;;;;;;6.88;4.25;;;;;;;-1.40;59.66;98949.88;4917738;29;20138;-65
2022/11/16 12:13:53;;;;;;;12.70;4.53;;;;;;;-1.48;59.84;98953.31;4917708;29;20118;-65
2022/11/16 12:16:44;;;;;;;7.20;3.90;;;;;;;-1.61;59.91;98938.28;4934767;29;20048;-66
2022/11/16 12:19:20;;;;;;;10.15;4.55;;;;;;;-1.57;59.78;98953.53;4902060;29;20047;-65
2022/11/16 12:22:01;;;;;;;7.78;4.45;;;;;;;-1.67;59.96;98940.78;4916497;29;20130;-65
2022/11/16 12:24:39;;;;;;;6.85;4.05;;;;;;;-1.67;60.20;98941.56;4917306;29;20065;-65